createdAt,value
2023-03-02T00:01:40.650Z,102323.59
2023-03-02T00:04:11.352Z,102328.69
2023-03-02T00:06:38.223Z,102328.38
2023-03-02T00:09:06.495Z,102324.44
2023-03-02T00:11:34.565Z,102328.97
2023-03-02T00:14:01.761Z,102315.75
2023-03-02T00:16:28.775Z,102314.91
2023-03-02T00:18:58.086Z,102310.69
2023-03-02T00:21:24.963Z,102318.88
2023-03-02T00:23:52.604Z,102314.94
2023-03-02T00:26:19.848Z,102309.03
2023-03-02T00:28:47.047Z,102311.00
2023-03-02T00:31:13.994Z,102304.28
2023-03-02T00:33:41.044Z,102316.13
2023-03-02T00:36:15.255Z,102312.47
2023-03-02T00:38:42.224Z,102314.97
2023-03-02T00:41:09.141Z,102308.22
2023-03-02T00:43:36.012Z,102311.06
2023-03-02T00:46:09.126Z,102306.53
2023-03-02T00:48:36.262Z,102303.47
2023-03-02T00:51:03.203Z,102310.22
2023-03-02T00:53:34.204Z,102304.31
2023-03-02T00:56:03.350Z,102308.25
2023-03-02T00:58:30.603Z,102305.75
2023-03-02T01:00:58.427Z,102307.97
2023-03-02T01:03:25.694Z,102305.16
2023-03-02T01:05:55.720Z,102301.53
2023-03-02T01:08:23.388Z,102299.84
2023-03-02T01:10:54.241Z,102299.00
2023-03-02T01:13:21.447Z,102302.38
2023-03-02T01:15:59.750Z,102298.16
2023-03-02T01:18:26.740Z,102297.03
2023-03-02T01:21:00.830Z,102290.84
2023-03-02T01:23:27.804Z,102297.03
2023-03-02T01:25:54.831Z,102286.91
2023-03-02T01:28:21.761Z,102289.16
2023-03-02T01:30:49.284Z,102280.44
2023-03-02T01:33:21.542Z,102288.56
2023-03-02T01:35:48.788Z,102289.09
2023-03-02T01:38:15.941Z,102284.91
2023-03-02T01:40:42.910Z,102280.66
2023-03-02T01:43:12.741Z,102279.53
2023-03-02T01:45:43.443Z,102275.03
2023-03-02T01:48:11.748Z,102268.28
2023-03-02T01:50:38.696Z,102274.22
2023-03-02T01:53:06.069Z,102268.03
2023-03-02T01:55:34.328Z,102268.59
2023-03-02T01:58:01.430Z,102263.50
2023-03-02T02:00:30.250Z,102269.69
2023-03-02T02:03:09.153Z,102267.16
2023-03-02T02:05:38.437Z,102268.28
2023-03-02T02:08:06.062Z,102263.78
2023-03-02T02:10:34.088Z,102267.72
2023-03-02T02:13:01.623Z,102260.69
2023-03-02T02:15:28.671Z,102257.63
2023-03-02T02:17:55.914Z,102262.66
2023-03-02T02:20:26.104Z,102262.91
2023-03-02T02:22:59.457Z,102259.81
2023-03-02T02:25:29.386Z,102253.34
2023-03-02T02:27:56.659Z,102261.50
2023-03-02T02:30:24.605Z,102253.66
2023-03-02T02:32:53.714Z,102252.22
2023-03-02T02:35:22.884Z,102248.84
2023-03-02T02:37:52.676Z,102258.97
2023-03-02T02:40:23.507Z,102256.41
2023-03-02T02:42:54.539Z,102256.41
2023-03-02T02:45:23.851Z,102261.44
2023-03-02T02:47:51.361Z,102256.41
2023-03-02T02:50:23.220Z,102260.88
2023-03-02T02:52:53.772Z,102258.34
2023-03-02T02:55:21.672Z,102257.78
2023-03-02T02:57:49.412Z,102264.78
2023-03-02T03:00:18.903Z,102252.13
2023-03-02T03:02:47.994Z,102258.84
2023-03-02T03:05:15.652Z,102250.69
2023-03-02T03:07:44.643Z,102252.34
2023-03-02T03:10:14.275Z,102262.19
2023-03-02T03:12:42.099Z,102256.84
2023-03-02T03:15:09.039Z,102257.09
2023-03-02T03:17:35.928Z,102254.59
2023-03-02T03:20:06.636Z,102257.66
2023-03-02T03:22:35.475Z,102253.72
2023-03-02T03:25:02.340Z,102246.41
2023-03-02T03:27:29.063Z,102255.94
2023-03-02T03:29:55.839Z,102251.72
2023-03-02T03:32:22.742Z,102248.94
2023-03-02T03:34:49.543Z,102243.88
2023-03-02T03:37:18.026Z,102249.16
2023-03-02T03:39:45.213Z,102245.53
2023-03-02T03:42:12.382Z,102245.22
2023-03-02T03:44:39.124Z,102251.97
2023-03-02T03:47:08.318Z,102254.19
2023-03-02T03:49:37.256Z,102249.13
2023-03-02T03:52:06.411Z,102248.53
2023-03-02T03:54:33.190Z,102246.84
2023-03-02T03:57:04.271Z,102248.00
2023-03-02T03:59:31.177Z,102248.50
2023-03-02T04:01:59.996Z,102243.75
2023-03-02T04:04:28.637Z,102251.28
2023-03-02T04:06:55.805Z,102254.09
2023-03-02T04:09:23.175Z,102260.00
2023-03-02T04:11:50.840Z,102260.50
2023-03-02T04:14:19.234Z,102265.28
2023-03-02T04:16:46.003Z,102268.38
2023-03-02T04:19:13.401Z,102265.28
2023-03-02T04:21:41.586Z,102266.09
2023-03-02T04:24:08.866Z,102273.94
2023-03-02T04:26:36.414Z,102268.03
2023-03-02T04:29:03.631Z,102265.22
2023-03-02T04:31:33.191Z,102265.75
2023-03-02T04:34:00.508Z,102266.03
2023-03-02T04:36:27.445Z,102271.06
2023-03-02T04:38:56.432Z,102272.16
2023-03-02T04:41:23.382Z,102271.03
2023-03-02T04:43:50.098Z,102286.16
2023-03-02T04:46:20.115Z,102279.72
2023-03-02T04:48:47.112Z,102273.53
2023-03-02T04:51:17.099Z,102266.22
2023-03-02T04:53:43.994Z,102272.13
2023-03-02T04:56:10.922Z,102268.09
2023-03-02T04:58:37.690Z,102270.09
2023-03-02T05:01:04.680Z,102263.91
2023-03-02T05:03:31.529Z,102269.75
2023-03-02T05:05:58.294Z,102277.31
2023-03-02T05:08:25.048Z,102268.09
2023-03-02T05:10:51.831Z,102279.81
2023-03-02T05:13:18.727Z,102272.81
2023-03-02T05:15:45.476Z,102261.00
2023-03-02T05:18:12.807Z,102268.00
2023-03-02T05:20:39.955Z,102267.16
2023-03-02T05:23:08.828Z,102259.63
2023-03-02T05:25:36.639Z,102267.53
2023-03-02T05:28:03.700Z,102262.56
2023-03-02T05:30:32.680Z,102266.25
2023-03-02T05:33:01.819Z,102265.44
2023-03-02T05:35:28.670Z,102257.09
2023-03-02T05:37:57.901Z,102259.06
2023-03-02T05:40:24.754Z,102255.47
2023-03-02T05:42:51.870Z,102256.59
2023-03-02T05:45:20.577Z,102260.53
2023-03-02T05:47:48.148Z,102256.94
2023-03-02T05:50:14.995Z,102255.25
2023-03-02T05:52:41.762Z,102247.72
2023-03-02T05:55:09.262Z,102250.31
2023-03-02T05:57:36.061Z,102256.75
2023-03-02T06:00:02.907Z,102263.25
2023-03-02T06:02:29.730Z,102266.06
2023-03-02T06:04:56.758Z,102258.53
2023-03-02T06:07:23.780Z,102266.97
2023-03-02T06:09:51.269Z,102266.72
2023-03-02T06:12:18.383Z,102260.28
2023-03-02T06:14:45.240Z,102268.75
2023-03-02T06:17:11.974Z,102271.56
2023-03-02T06:19:38.722Z,102275.50
2023-03-02T06:22:05.558Z,102274.69
2023-03-02T06:24:32.329Z,102273.59
2023-03-02T06:26:59.169Z,102275.56
2023-03-02T06:29:26.008Z,102271.91
2023-03-02T06:31:52.800Z,102275.84
2023-03-02T06:34:19.618Z,102279.78
2023-03-02T06:36:46.436Z,102275.03
2023-03-02T06:39:16.059Z,102282.91
2023-03-02T06:41:43.483Z,102273.63
2023-03-02T06:44:10.289Z,102279.53
2023-03-02T06:46:37.592Z,102276.72
2023-03-02T06:49:04.883Z,102273.09
2023-03-02T06:51:32.172Z,102280.69
2023-03-02T06:53:59.942Z,102272.53
2023-03-02T06:56:27.451Z,102281.28
2023-03-02T06:58:54.281Z,102278.50
2023-03-02T07:01:21.177Z,102264.72
2023-03-02T07:03:48.153Z,102275.09
2023-03-02T07:06:15.098Z,102277.34
2023-03-02T07:08:41.862Z,102266.38
2023-03-02T07:11:09.432Z,102274.25
2023-03-02T07:13:38.174Z,102278.47
2023-03-02T07:16:07.258Z,102284.66
2023-03-02T07:18:36.319Z,102286.91
2023-03-02T07:21:03.447Z,102281.00
2023-03-02T07:23:30.313Z,102285.22
2023-03-02T07:25:58.106Z,102286.91
2023-03-02T07:28:25.540Z,102279.59
2023-03-02T07:30:53.513Z,102284.94
2023-03-02T07:33:22.796Z,102287.19
2023-03-02T07:35:49.623Z,102282.41
2023-03-02T07:38:17.048Z,102277.88
2023-03-02T07:40:45.098Z,102281.84
2023-03-02T07:43:11.957Z,102276.50
2023-03-02T07:45:39.188Z,102267.53
2023-03-02T07:48:06.234Z,102284.06
2023-03-02T07:50:33.248Z,102271.13
2023-03-02T07:53:02.329Z,102276.22
2023-03-02T07:55:29.149Z,102277.31
2023-03-02T07:57:56.163Z,102275.63
2023-03-02T08:00:23.251Z,102279.28
2023-03-02T08:02:50.175Z,102273.66
2023-03-02T08:05:17.201Z,102274.78
2023-03-02T08:07:46.561Z,102275.34
2023-03-02T08:10:13.443Z,102285.44
2023-03-02T08:12:40.416Z,102275.63
2023-03-02T08:15:07.820Z,102277.03
2023-03-02T08:17:34.691Z,102277.31
2023-03-02T08:20:01.815Z,102287.13
2023-03-02T08:22:28.651Z,102289.09
2023-03-02T08:24:59.934Z,102283.19
2023-03-02T08:27:27.062Z,102296.97
2023-03-02T08:29:56.453Z,102292.22
2023-03-02T08:32:23.493Z,102287.72
2023-03-02T08:34:52.114Z,102300.66
2023-03-02T08:37:21.614Z,102297.00
2023-03-02T08:39:48.696Z,102300.94
2023-03-02T08:42:15.776Z,102302.38
2023-03-02T08:44:42.916Z,102303.50
2023-03-02T08:47:09.772Z,102308.25
2023-03-02T08:49:38.432Z,102309.69
2023-03-02T08:52:05.352Z,102310.53
2023-03-02T08:54:34.649Z,102307.97
2023-03-02T08:57:02.404Z,102315.88
2023-03-02T08:59:29.626Z,102312.22
2023-03-02T09:01:56.587Z,102317.50
2023-03-02T09:04:23.608Z,102312.44
2023-03-02T09:06:50.616Z,102308.22
2023-03-02T09:09:17.697Z,102313.00
2023-03-02T09:11:45.162Z,102314.13
2023-03-02T09:14:30.123Z,102319.16
2023-03-02T09:16:57.505Z,102318.88
2023-03-02T09:19:24.418Z,102321.41
2023-03-02T09:21:51.417Z,102323.38
2023-03-02T09:24:18.879Z,102322.53
2023-03-02T09:26:45.855Z,102319.44
2023-03-02T09:29:13.654Z,102317.75
2023-03-02T09:31:40.553Z,102322.50
2023-03-02T09:34:41.162Z,102321.13
2023-03-02T09:37:09.002Z,102319.69
2023-03-02T09:39:37.330Z,102325.31
2023-03-02T09:42:07.482Z,102320.53
2023-03-02T09:44:37.375Z,102316.06
2023-03-02T09:47:05.346Z,102322.22
2023-03-02T09:49:40.506Z,102327.28
2023-03-02T09:52:11.969Z,102329.22
2023-03-02T09:54:40.320Z,102323.31
2023-03-02T09:57:20.094Z,102333.44
2023-03-02T09:59:49.274Z,102326.97
2023-03-02T10:02:19.191Z,102319.94
2023-03-02T10:04:48.201Z,102327.53
2023-03-02T10:07:16.753Z,102326.16
2023-03-02T10:09:43.791Z,102329.78
2023-03-02T10:12:13.831Z,102319.97
2023-03-02T10:14:44.260Z,102324.19
2023-03-02T10:17:14.243Z,102323.34
2023-03-02T10:19:45.309Z,102329.81
2023-03-02T10:22:15.195Z,102325.91
2023-03-02T10:24:45.275Z,102330.13
2023-03-02T10:27:13.602Z,102331.56
2023-03-02T10:29:43.702Z,102330.97
2023-03-02T10:32:13.701Z,102322.84
2023-03-02T10:34:40.858Z,102321.13
2023-03-02T10:37:10.845Z,102313.84
2023-03-02T10:39:37.868Z,102315.50
2023-03-02T10:42:07.714Z,102322.28
2023-03-02T10:44:38.091Z,102326.22
2023-03-02T10:47:05.919Z,102323.94
2023-03-02T10:49:34.343Z,102321.72
2023-03-02T10:52:02.673Z,102320.88
2023-03-02T10:54:49.725Z,102324.53
2023-03-02T10:57:20.167Z,102323.94
2023-03-02T10:59:47.856Z,102317.78
2023-03-02T11:02:18.276Z,102320.88
2023-03-02T11:04:45.838Z,102318.91
2023-03-02T11:07:16.093Z,102317.78
2023-03-02T11:09:43.568Z,102314.13
2023-03-02T11:12:15.856Z,102320.31
2023-03-02T11:14:44.909Z,102319.16
2023-03-02T11:17:14.850Z,102326.50
2023-03-02T11:19:42.373Z,102327.59
2023-03-02T11:22:16.808Z,102327.31
2023-03-02T11:24:48.652Z,102321.44
2023-03-02T11:27:20.579Z,102321.13
2023-03-02T11:29:51.415Z,102318.91
2023-03-02T11:32:20.563Z,102320.00
2023-03-02T11:34:47.998Z,102320.31
2023-03-02T11:37:19.032Z,102310.19
2023-03-02T11:39:55.637Z,102311.03
2023-03-02T11:42:25.076Z,102326.47
2023-03-02T11:44:52.123Z,102321.69
2023-03-02T11:47:20.984Z,102318.34
2023-03-02T11:49:54.316Z,102319.44
2023-03-02T11:52:22.655Z,102320.84
2023-03-02T11:54:52.936Z,102320.84
2023-03-02T11:57:22.977Z,102324.47
2023-03-02T11:59:51.139Z,102311.84
2023-03-02T12:02:18.755Z,102321.66
2023-03-02T12:04:47.399Z,102322.22
2023-03-02T12:07:17.547Z,102324.78
2023-03-02T12:09:56.624Z,102304.81
2023-03-02T12:12:26.746Z,102303.41
2023-03-02T12:14:53.817Z,102305.94
2023-03-02T12:17:23.913Z,102307.88
2023-03-02T12:19:54.703Z,102301.41
2023-03-02T12:22:24.678Z,102303.13
2023-03-02T12:24:59.482Z,102303.38
2023-03-02T12:27:27.557Z,102303.09
2023-03-02T12:29:57.656Z,102303.94
2023-03-02T12:32:26.394Z,102298.91
2023-03-02T12:34:55.366Z,102300.28
2023-03-02T12:37:25.309Z,102297.47
2023-03-02T12:39:55.339Z,102300.28
2023-03-02T12:42:25.293Z,102294.63
2023-03-02T12:44:59.982Z,102292.41
2023-03-02T12:47:30.249Z,102293.25
2023-03-02T12:49:59.105Z,102297.16
2023-03-02T12:52:27.697Z,102294.09
2023-03-02T12:54:57.807Z,102300.00
2023-03-02T12:57:24.779Z,102299.41
2023-03-02T12:59:53.304Z,102289.59
2023-03-02T13:02:22.278Z,102299.13
2023-03-02T13:04:52.237Z,102294.94
2023-03-02T13:07:20.594Z,102289.03
2023-03-02T13:09:56.346Z,102293.78
2023-03-02T13:12:25.685Z,102280.59
2023-03-02T13:14:54.683Z,102281.19
2023-03-02T13:17:24.741Z,102278.94
2023-03-02T13:19:52.060Z,102284.22
2023-03-02T13:22:23.534Z,102270.50
2023-03-02T13:24:55.335Z,102271.88
2023-03-02T13:27:23.675Z,102281.72
2023-03-02T13:29:53.125Z,102274.97
2023-03-02T13:32:23.302Z,102278.34
2023-03-02T13:34:53.390Z,102272.44
2023-03-02T13:37:23.444Z,102266.22
2023-03-02T13:39:53.533Z,102267.66
2023-03-02T13:42:23.587Z,102265.94
2023-03-02T13:44:54.256Z,102268.75
2023-03-02T13:47:23.812Z,102262.00
2023-03-02T13:49:51.076Z,102258.63
2023-03-02T13:52:22.828Z,102258.63
2023-03-02T13:54:52.843Z,102251.59
2023-03-02T13:57:29.698Z,102257.50
2023-03-02T13:59:58.234Z,102252.16
2023-03-02T14:02:25.608Z,102252.69
2023-03-02T14:04:53.212Z,102248.78
2023-03-02T14:07:21.615Z,102252.13
2023-03-02T14:09:48.879Z,102238.97
2023-03-02T14:12:19.017Z,102249.84
2023-03-02T14:14:45.920Z,102247.31
2023-03-02T14:17:14.838Z,102240.03
2023-03-02T14:19:41.891Z,102242.25
2023-03-02T14:22:13.676Z,102242.25
2023-03-02T14:24:43.500Z,102243.66
2023-03-02T14:27:14.201Z,102243.38
2023-03-02T14:29:51.492Z,102238.59
2023-03-02T14:32:18.792Z,102234.66
2023-03-02T14:34:45.781Z,102223.13
2023-03-02T14:37:14.837Z,102236.03
2023-03-02T14:39:43.498Z,102229.88
2023-03-02T14:42:12.845Z,102221.16
2023-03-02T14:44:48.167Z,102230.97
2023-03-02T14:47:16.868Z,102224.78
2023-03-02T14:49:43.967Z,102212.72
2023-03-02T14:52:14.256Z,102223.09
2023-03-02T14:54:46.970Z,102222.53
2023-03-02T14:57:16.975Z,102220.84
2023-03-02T14:59:46.091Z,102216.63
2023-03-02T15:02:24.691Z,102214.09
2023-03-02T15:04:56.512Z,102215.22
2023-03-02T15:07:24.667Z,102209.34
2023-03-02T15:09:51.647Z,102213.28
2023-03-02T15:12:18.582Z,102212.72
2023-03-02T15:14:48.467Z,102212.19
2023-03-02T15:17:15.438Z,102207.41
2023-03-02T15:19:42.317Z,102202.66
2023-03-02T15:22:09.276Z,102200.47
2023-03-02T15:24:43.269Z,102199.66
2023-03-02T15:27:10.377Z,102204.72
2023-03-02T15:29:37.596Z,102200.84
2023-03-02T15:32:06.106Z,102200.53
2023-03-02T15:34:33.157Z,102197.47
2023-03-02T15:37:00.050Z,102209.84
2023-03-02T15:39:26.913Z,102198.31
2023-03-02T15:41:54.472Z,102201.72
2023-03-02T15:44:49.881Z,102206.50
2023-03-02T15:47:18.258Z,102207.06
2023-03-02T15:49:45.668Z,102204.78
2023-03-02T15:52:16.050Z,102204.78
2023-03-02T15:54:45.187Z,102198.31
2023-03-02T15:57:16.363Z,102196.09
2023-03-02T15:59:46.546Z,102197.53
2023-03-02T16:02:15.696Z,102206.78
2023-03-02T16:04:57.021Z,102209.03
2023-03-02T16:07:37.657Z,102202.03
2023-03-02T16:10:05.307Z,102203.13
2023-03-02T16:12:32.236Z,102205.94
2023-03-02T16:14:59.259Z,102197.50
2023-03-02T16:17:26.577Z,102196.66
2023-03-02T16:19:53.827Z,102205.09
2023-03-02T16:22:20.704Z,102204.25
2023-03-02T16:24:49.197Z,102205.09
2023-03-02T16:27:16.284Z,102202.81
2023-03-02T16:29:43.725Z,102205.09
2023-03-02T16:32:11.027Z,102208.16
2023-03-02T16:34:38.391Z,102210.69
2023-03-02T16:37:12.447Z,102210.41
2023-03-02T16:39:56.902Z,102214.06
2023-03-02T16:42:24.245Z,102209.00
2023-03-02T16:44:55.659Z,102209.84
2023-03-02T16:47:35.107Z,102210.41
2023-03-02T16:50:03.848Z,102220.53
2023-03-02T16:52:30.996Z,102223.66
2023-03-02T16:54:58.041Z,102226.72
2023-03-02T16:57:25.324Z,102228.97
2023-03-02T16:59:52.436Z,102222.81
2023-03-02T17:02:19.489Z,102236.56
2023-03-02T17:04:46.735Z,102236.28
2023-03-02T17:07:16.676Z,102235.75
2023-03-02T17:09:43.555Z,102242.75
2023-03-02T17:12:10.606Z,102239.69
2023-03-02T17:14:39.866Z,102234.63
2023-03-02T17:17:06.875Z,102246.16
2023-03-02T17:19:33.742Z,102246.41
2023-03-02T17:22:02.272Z,102248.69
2023-03-02T17:24:43.536Z,102245.31
2023-03-02T17:27:24.059Z,102256.53
2023-03-02T17:29:52.263Z,102246.72
2023-03-02T17:32:20.735Z,102253.19
2023-03-02T17:34:48.574Z,102250.66
2023-03-02T17:37:17.859Z,102256.53
2023-03-02T17:39:45.023Z,102268.31
2023-03-02T17:42:11.989Z,102253.41
2023-03-02T17:44:39.453Z,102273.38
2023-03-02T17:47:08.843Z,102273.94
2023-03-02T17:49:40.363Z,102273.38
2023-03-02T17:52:08.408Z,102283.19
2023-03-02T17:54:38.364Z,102277.59
2023-03-02T17:57:06.017Z,102294.16
2023-03-02T17:59:36.491Z,102300.91
2023-03-02T18:02:10.269Z,102300.63
2023-03-02T18:04:37.832Z,102305.66
2023-03-02T18:07:06.585Z,102306.81
2023-03-02T18:09:34.914Z,102310.44
2023-03-02T18:12:04.870Z,102312.94
2023-03-02T18:14:32.810Z,102319.13
2023-03-02T18:17:08.584Z,102316.91
2023-03-02T18:19:37.326Z,102322.19
2023-03-02T18:22:04.943Z,102328.97
2023-03-02T18:24:32.785Z,102334.56
2023-03-02T18:26:59.863Z,102341.03
2023-03-02T18:29:27.253Z,102337.91
2023-03-02T18:31:54.469Z,102347.47
2023-03-02T18:34:21.746Z,102348.31
2023-03-02T18:36:48.751Z,102349.69
2023-03-02T18:39:15.748Z,102350.81
2023-03-02T18:41:44.899Z,102351.13
2023-03-02T18:44:12.247Z,102357.88
2023-03-02T18:46:39.435Z,102362.09
2023-03-02T18:49:06.950Z,102370.53
2023-03-02T18:51:34.248Z,102365.78
2023-03-02T18:54:23.760Z,102367.19
2023-03-02T18:56:51.582Z,102373.66
2023-03-02T18:59:20.532Z,102375.66
2023-03-02T19:01:47.752Z,102367.75
2023-03-02T19:04:15.217Z,102382.41
2023-03-02T19:06:42.507Z,102373.41
2023-03-02T19:09:09.738Z,102373.97
2023-03-02T19:11:37.230Z,102382.16
2023-03-02T19:14:10.407Z,102390.56
2023-03-02T19:16:37.846Z,102388.31
2023-03-02T19:19:05.018Z,102385.50
2023-03-02T19:21:31.904Z,102388.63
2023-03-02T19:23:58.864Z,102386.94
2023-03-02T19:26:26.064Z,102397.34
2023-03-02T19:28:53.161Z,102406.06
2023-03-02T19:31:20.044Z,102396.53
2023-03-02T19:33:46.955Z,102409.44
2023-03-02T19:36:14.313Z,102399.34
2023-03-02T19:38:43.113Z,102408.31
2023-03-02T19:41:12.411Z,102404.97
2023-03-02T19:43:40.697Z,102406.94
2023-03-02T19:46:10.967Z,102408.03
2023-03-02T19:48:38.476Z,102414.50
2023-03-02T19:51:06.091Z,102413.06
2023-03-02T19:53:33.343Z,102412.81
2023-03-02T19:56:03.250Z,102412.22
2023-03-02T19:58:32.455Z,102417.84
2023-03-02T20:00:59.441Z,102414.72
2023-03-02T20:03:26.374Z,102414.47
2023-03-02T20:05:54.692Z,102413.63
2023-03-02T20:08:25.606Z,102417.84
2023-03-02T20:10:52.745Z,102412.75
2023-03-02T20:13:21.049Z,102418.09
2023-03-02T20:15:53.228Z,102423.13
2023-03-02T20:18:21.729Z,102420.31
2023-03-02T20:20:50.648Z,102433.00
2023-03-02T20:23:18.736Z,102440.03
2023-03-02T20:25:48.396Z,102438.63
2023-03-02T20:28:18.227Z,102440.06
2023-03-02T20:30:48.816Z,102438.97
2023-03-02T20:33:18.726Z,102446.84
2023-03-02T20:35:46.575Z,102441.50
2023-03-02T20:38:16.120Z,102450.53
2023-03-02T20:40:43.458Z,102440.97
2023-03-02T20:43:10.493Z,102447.16
2023-03-02T20:45:37.997Z,102452.25
2023-03-02T20:48:05.670Z,102444.66
2023-03-02T20:50:36.353Z,102441.84
2023-03-02T20:53:04.228Z,102455.91
2023-03-02T20:55:31.192Z,102458.97
2023-03-02T20:57:58.216Z,102457.00
2023-03-02T21:00:26.586Z,102463.47
2023-03-02T21:02:53.442Z,102467.16
2023-03-02T21:05:21.103Z,102466.28
2023-03-02T21:07:48.223Z,102469.38
2023-03-02T21:10:17.106Z,102469.09
2023-03-02T21:12:44.765Z,102475.00
2023-03-02T21:15:12.147Z,102475.28
2023-03-02T21:17:42.077Z,102476.13
2023-03-02T21:20:09.697Z,102480.91
2023-03-02T21:22:36.897Z,102485.97
2023-03-02T21:25:04.128Z,102481.19
2023-03-02T21:27:31.140Z,102486.50
2023-03-02T21:29:58.090Z,102479.22
2023-03-02T21:32:25.406Z,102479.78
2023-03-02T21:34:52.722Z,102484.00
2023-03-02T21:37:19.703Z,102481.44
2023-03-02T21:39:46.508Z,102475.53
2023-03-02T21:42:13.535Z,102473.00
2023-03-02T21:44:40.432Z,102476.06
2023-03-02T21:47:07.304Z,102476.91
2023-03-02T21:49:36.739Z,102472.97
2023-03-02T21:52:04.292Z,102476.34
2023-03-02T21:54:31.109Z,102480.84
2023-03-02T21:56:58.030Z,102477.19
2023-03-02T21:59:24.889Z,102467.88
2023-03-02T22:01:51.903Z,102481.91
2023-03-02T22:04:18.715Z,102474.59
2023-03-02T22:06:45.595Z,102476.00
2023-03-02T22:09:12.527Z,102470.66
2023-03-02T22:11:39.593Z,102468.94
2023-03-02T22:14:11.763Z,102470.91
2023-03-02T22:16:40.428Z,102471.72
2023-03-02T22:19:20.703Z,102472.00
2023-03-02T22:21:48.024Z,102477.88
2023-03-02T22:24:20.790Z,102475.06
2023-03-02T22:26:50.572Z,102470.31
2023-03-02T22:29:17.808Z,102473.97
2023-03-02T22:31:47.672Z,102480.13
2023-03-02T22:34:18.178Z,102476.75
2023-03-02T22:36:46.493Z,102474.19
2023-03-02T22:39:17.470Z,102479.81
2023-03-02T22:41:44.317Z,102479.00
2023-03-02T22:44:12.238Z,102470.53
2023-03-02T22:46:39.593Z,102480.09
2023-03-02T22:49:09.639Z,102478.94
2023-03-02T22:51:36.555Z,102484.53
2023-03-02T22:54:03.290Z,102475.84
2023-03-02T22:56:32.012Z,102475.50
2023-03-02T22:59:05.549Z,102482.81
2023-03-02T23:01:35.790Z,102479.13
2023-03-02T23:04:13.168Z,102479.44
2023-03-02T23:06:46.108Z,102482.81
2023-03-02T23:09:15.089Z,102486.75
2023-03-02T23:11:42.720Z,102482.81
2023-03-02T23:14:13.649Z,102479.47
2023-03-02T23:16:41.896Z,102483.94
2023-03-02T23:19:09.510Z,102475.84
2023-03-02T23:21:40.075Z,102476.97
2023-03-02T23:24:10.388Z,102477.00
2023-03-02T23:26:37.933Z,102472.53
2023-03-02T23:29:06.059Z,102468.31
2023-03-02T23:31:33.914Z,102468.59
2023-03-02T23:34:03.284Z,102462.47
2023-03-02T23:36:32.153Z,102467.53
2023-03-02T23:38:58.924Z,102476.81
2023-03-02T23:41:26.287Z,102466.97
2023-03-02T23:43:54.163Z,102467.53
2023-03-02T23:46:21.259Z,102463.88
2023-03-02T23:48:48.709Z,102469.50
2023-03-02T23:51:16.092Z,102466.69
2023-03-02T23:53:42.868Z,102463.88
2023-03-02T23:56:09.764Z,102462.78
2023-03-02T23:58:38.754Z,102475.41
